Time;durP1;ratioP1;P1;durP2;ratioP2;P2;SDS_P1;SDS_P2;PMS_P1;PMS_P2;Temp;Humidity;BMP_temperature;BMP_pressure;BME280_temperature;BME280_humidity;BME280_pressure;Samples;Min_cycle;Max_cycle;Signal;HPM_P1;HPM_P2
2022/04/16 00:00:08;;;;;;;16.25;7.93;;;;;;;11.32;46.72;95349.94;5065610;28;20032;-71
2022/04/16 00:02:33;;;;;;;18.35;7.38;;;;;;;11.25;46.74;95350.66;5066579;28;20066;-71
2022/04/16 00:04:59;;;;;;;19.98;7.85;;;;;;;11.24;47.17;95348.16;5065619;28;20033;-72
2022/04/16 00:07:24;;;;;;;13.18;7.35;;;;;;;11.23;47.50;95355.41;5066458;28;20024;-69
2022/04/16 00:09:50;;;;;;;22.05;8.32;;;;;;;11.19;47.99;95356.78;5065605;28;20033;-70
2022/04/16 00:12:15;;;;;;;13.15;6.80;;;;;;;11.15;48.05;95358.16;5066337;28;20029;-69
2022/04/16 00:14:40;;;;;;;12.18;6.97;;;;;;;11.14;47.36;95359.16;5065689;28;20529;-70
2022/04/16 00:17:06;;;;;;;12.13;6.93;;;;;;;11.05;47.86;95365.63;5066012;28;20101;-70
2022/04/16 00:19:32;;;;;;;12.13;7.10;;;;;;;11.05;47.99;95358.41;5048231;28;20564;-71
2022/04/16 00:22:00;;;;;;;15.68;6.55;;;;;;;11.04;47.54;95363.97;5065205;28;20040;-71
2022/04/16 00:24:28;;;;;;;10.40;6.38;;;;;;;11.10;47.59;95363.25;5066101;28;20054;-71
2022/04/16 00:26:54;;;;;;;10.60;6.60;;;;;;;11.11;47.49;95362.22;5065057;28;20503;-70
2022/04/16 00:29:19;;;;;;;11.98;6.28;;;;;;;11.09;47.61;95357.03;5066213;28;20075;-71
2022/04/16 00:31:47;;;;;;;14.75;7.32;;;;;;;10.93;48.53;95352.63;5047137;28;20032;-70
2022/04/16 00:34:14;;;;;;;18.10;6.22;;;;;;;10.95;48.53;95361.34;5065887;28;20028;-70
2022/04/16 00:36:43;;;;;;;10.40;6.32;;;;;;;10.90;48.53;95362.91;5065137;28;20029;-71
2022/04/16 00:39:09;;;;;;;16.38;6.53;;;;;;;10.76;48.87;95360.00;5065414;28;20442;-71
2022/04/16 00:41:34;;;;;;;12.80;6.97;;;;;;;10.77;49.54;95352.81;5066136;28;20031;-70
2022/04/16 00:44:00;;;;;;;8.75;6.15;;;;;;;10.75;49.25;95359.16;5064891;28;20029;-71
2022/04/16 00:46:25;;;;;;;15.10;7.05;;;;;;;10.73;48.51;95358.53;5065439;28;20028;-69
2022/04/16 00:48:51;;;;;;;11.23;6.95;;;;;;;10.72;48.51;95356.84;5064783;28;20112;-70
2022/04/16 00:51:16;;;;;;;11.80;6.70;;;;;;;10.67;48.41;95348.50;5065505;28;20028;-69
2022/04/16 00:53:41;;;;;;;12.23;7.13;;;;;;;10.60;48.67;95352.91;5065641;28;20030;-70
2022/04/16 00:56:08;;;;;;;13.10;7.78;;;;;;;10.56;48.56;95351.63;5064878;28;20025;-69
2022/04/16 00:58:33;;;;;;;14.02;8.27;;;;;;;10.54;48.01;95353.63;5047829;28;20028;-70
2022/04/16 01:00:58;;;;;;;12.27;7.47;;;;;;;10.50;48.37;95348.63;5064421;28;20577;-70
2022/04/16 01:03:26;;;;;;;10.27;6.65;;;;;;;10.57;47.65;95359.47;5065437;28;20031;-71
2022/04/16 01:05:51;;;;;;;11.93;6.20;;;;;;;10.58;46.66;95365.66;5064422;28;20029;-70
2022/04/16 01:08:19;;;;;;;8.10;6.05;;;;;;;10.59;46.41;95357.44;5065419;28;20027;-70
2022/04/16 01:10:45;;;;;;;12.18;7.22;;;;;;;10.66;45.57;95362.06;5064693;28;20384;-69
2022/04/16 01:13:11;;;;;;;9.70;6.88;;;;;;;10.60;46.07;95353.75;5064324;28;20028;-71
2022/04/16 01:15:39;;;;;;;13.32;6.72;;;;;;;10.61;45.77;95343.84;5065009;28;20452;-70
2022/04/16 01:18:05;;;;;;;13.38;5.85;;;;;;;10.61;45.48;95354.56;5064403;28;20021;-70
2022/04/16 01:20:35;;;;;;;10.45;6.40;;;;;;;10.60;45.54;95352.91;5065341;28;20042;-69
2022/04/16 01:23:01;;;;;;;16.05;6.97;;;;;;;10.62;45.55;95345.53;5064728;28;20027;-70
2022/04/16 01:25:27;;;;;;;9.48;6.22;;;;;;;10.56;46.06;95352.44;5065113;28;20434;-70
2022/04/16 01:27:53;;;;;;;9.32;5.45;;;;;;;10.60;45.39;95339.50;5064689;28;20483;-70
2022/04/16 01:30:19;;;;;;;11.45;6.13;;;;;;;10.61;45.45;95343.84;5047240;28;20028;-71
2022/04/16 01:32:45;;;;;;;10.27;5.68;;;;;;;10.55;46.12;95344.56;5064757;28;20021;-69
2022/04/16 01:35:10;;;;;;;10.95;5.43;;;;;;;10.54;45.41;95351.78;5064617;28;20025;-71
2022/04/16 01:37:37;;;;;;;7.82;5.07;;;;;;;10.46;45.77;95351.81;5064964;28;20012;-70
2022/04/16 01:40:07;;;;;;;10.05;5.38;;;;;;;10.39;45.83;95347.16;5046258;28;20033;-71
2022/04/16 01:42:32;;;;;;;8.30;4.88;;;;;;;10.35;45.47;95351.19;5047531;28;20487;-70
2022/04/16 01:45:11;;;;;;;10.15;4.90;;;;;;;10.39;45.42;95354.38;5064094;28;20089;-71
2022/04/16 01:47:38;;;;;;;9.15;4.20;;;;;;;10.34;45.73;95352.22;5064980;28;20020;-71
2022/04/16 01:50:07;;;;;;;7.97;4.57;;;;;;;10.34;45.78;95348.69;5064246;28;20443;-70
2022/04/16 01:52:34;;;;;;;13.20;5.72;;;;;;;10.28;46.50;95352.94;5064154;28;20075;-70
2022/04/16 01:54:59;;;;;;;9.45;5.10;;;;;;;10.22;46.42;95346.41;5064962;28;20024;-70
2022/04/16 01:57:25;;;;;;;10.10;5.30;;;;;;;10.19;46.40;95346.78;5063972;28;20032;-72
2022/04/16 01:59:50;;;;;;;7.13;5.43;;;;;;;10.11;46.82;95344.97;5064813;28;20053;-71
2022/04/16 02:02:16;;;;;;;8.95;5.55;;;;;;;10.10;47.24;95351.38;5063919;28;20181;-71
2022/04/16 02:04:42;;;;;;;11.48;6.60;;;;;;;10.11;47.47;95346.81;5064635;28;20025;-70
2022/04/16 02:07:07;;;;;;;8.40;5.38;;;;;;;10.13;47.36;95348.34;5063891;28;20459;-71
2022/04/16 02:09:33;;;;;;;10.25;5.82;;;;;;;10.01;47.30;95347.06;5064604;28;20024;-70
2022/04/16 02:11:58;;;;;;;9.70;5.88;;;;;;;9.98;47.70;95350.91;5064738;28;20509;-71
2022/04/16 02:14:24;;;;;;;11.43;5.85;;;;;;;9.96;47.85;95350.25;5045789;28;20028;-71
2022/04/16 02:16:50;;;;;;;8.65;5.95;;;;;;;9.93;47.64;95350.59;5064804;28;20031;-70
2022/04/16 02:19:15;;;;;;;8.40;5.45;;;;;;;9.87;47.79;95348.63;5063792;28;20061;-70
2022/04/16 02:21:41;;;;;;;12.07;6.55;;;;;;;9.85;49.03;95347.97;5046729;28;20488;-71
2022/04/16 02:24:07;;;;;;;9.18;6.60;;;;;;;9.84;48.96;95339.09;5065609;28;20102;-71
2022/04/16 02:26:33;;;;;;;15.10;6.22;;;;;;;9.84;49.09;95343.63;5067937;28;20465;-69
2022/04/16 02:28:59;;;;;;;11.25;6.63;;;;;;;9.88;49.25;95345.75;5068025;28;20475;-70
2022/04/16 02:31:25;;;;;;;11.50;6.88;;;;;;;9.86;49.30;95344.28;5067602;28;20021;-70
2022/04/16 02:33:51;;;;;;;13.00;6.55;;;;;;;9.82;49.14;95337.63;5068313;28;20066;-70
2022/04/16 02:36:16;;;;;;;12.75;6.20;;;;;;;9.80;49.97;95331.59;5067214;28;20028;-70
2022/04/16 02:38:42;;;;;;;9.50;6.20;;;;;;;9.71;50.66;95333.47;5068097;28;20029;-69
2022/04/16 02:41:07;;;;;;;12.65;7.05;;;;;;;9.67;50.11;95333.00;5067454;28;20506;-72
2022/04/16 02:43:32;;;;;;;11.93;7.10;;;;;;;9.63;49.88;95332.50;5067819;28;20059;-70
2022/04/16 02:48:42;;;;;;;14.38;7.32;;;;;;;9.49;50.08;95331.38;5052347;28;20219;-70
2022/04/16 02:51:08;;;;;;;15.30;7.18;;;;;;;9.45;49.70;95335.41;5068031;28;20024;-70
2022/04/16 02:53:34;;;;;;;16.80;7.30;;;;;;;9.36;48.68;95331.09;5066902;28;20051;-70
2022/04/16 02:56:00;;;;;;;16.42;7.80;;;;;;;9.22;49.20;95330.78;5068050;28;20031;-69
2022/04/16 02:58:26;;;;;;;14.68;7.72;;;;;;;9.07;50.04;95343.19;5066939;28;20021;-70
2022/04/16 03:00:51;;;;;;;11.55;7.45;;;;;;;9.03;50.66;95353.38;5067730;28;20035;-69
2022/04/16 03:03:16;;;;;;;13.85;8.05;;;;;;;9.08;50.80;95352.88;5067553;28;20029;-68
2022/04/16 03:05:42;;;;;;;12.75;7.75;;;;;;;9.06;51.01;95362.94;5067685;28;20029;-71
2022/04/16 03:08:09;;;;;;;11.45;7.20;;;;;;;9.03;51.50;95362.25;5049333;28;20029;-71
2022/04/16 03:10:35;;;;;;;13.32;6.05;;;;;;;9.01;51.91;95369.59;5066504;28;20029;-69
2022/04/16 03:13:00;;;;;;;10.38;6.25;;;;;;;8.99;52.46;95363.59;5067589;28;20501;-69
2022/04/16 03:18:10;;;;;;;9.35;6.10;;;;;;;8.92;52.44;95370.63;5067586;28;20445;-70
2022/04/16 03:20:38;;;;;;;9.88;6.05;;;;;;;8.89;52.26;95366.44;5066546;28;20498;-71
2022/04/16 03:23:04;;;;;;;12.30;6.30;;;;;;;8.85;52.91;95356.25;5067255;28;20107;-69
2022/04/16 03:25:29;;;;;;;12.35;6.88;;;;;;;8.83;53.24;95361.78;5032458;28;20203;-70
2022/04/16 03:27:58;;;;;;;12.98;6.70;;;;;;;8.81;52.72;95358.44;5066355;28;20028;-69
2022/04/16 03:30:24;;;;;;;11.40;6.50;;;;;;;8.83;52.78;95361.78;5067309;28;20529;-70
2022/04/16 03:32:50;;;;;;;13.27;6.68;;;;;;;8.83;52.66;95372.47;5066469;28;20021;-70
2022/04/16 03:35:18;;;;;;;9.07;5.65;;;;;;;8.87;52.46;95367.59;5066198;28;20017;-71
2022/04/16 03:37:43;;;;;;;11.93;6.35;;;;;;;8.96;51.46;95377.31;5048253;28;20471;-70
2022/04/16 03:40:09;;;;;;;11.10;6.72;;;;;;;8.94;51.56;95379.31;5049048;28;20024;-69
2022/04/16 03:42:34;;;;;;;14.35;7.63;;;;;;;8.91;51.28;95379.66;5066576;28;20033;-70
2022/04/16 03:45:00;;;;;;;12.68;7.25;;;;;;;8.91;51.55;95382.34;5066247;28;20056;-69
2022/04/16 03:47:27;;;;;;;11.75;6.32;;;;;;;8.89;51.21;95395.03;5066968;28;20033;-70
2022/04/16 03:49:53;;;;;;;28.63;6.97;;;;;;;8.85;52.00;95391.84;5065728;28;20127;-70
2022/04/16 03:52:18;;;;;;;11.50;6.75;;;;;;;8.87;52.10;95394.34;5066848;28;20027;-70
2022/04/16 04:00:12;;;;;;;9.48;6.15;;;;;;;8.87;51.78;95403.22;5066776;28;20078;-70
2022/04/16 04:02:38;;;;;;;10.88;6.40;;;;;;;8.76;52.26;95407.06;5065712;28;20078;-70
2022/04/16 04:05:04;;;;;;;18.77;6.35;;;;;;;8.81;51.87;95408.41;5066380;28;20123;-70
2022/04/16 04:07:30;;;;;;;13.48;7.15;;;;;;;8.82;52.06;95418.94;5065778;28;20020;-70
2022/04/16 04:09:55;;;;;;;11.32;5.90;;;;;;;8.90;50.65;95426.13;5066392;28;20033;-70
2022/04/16 04:12:20;;;;;;;11.40;6.45;;;;;;;8.92;50.65;95431.28;5065653;28;20430;-71
2022/04/16 04:14:46;;;;;;;16.05;6.97;;;;;;;8.94;50.81;95438.16;5065986;28;20036;-70
2022/04/16 04:17:12;;;;;;;15.27;6.78;;;;;;;8.90;50.67;95439.47;5048014;28;20111;-69
2022/04/16 04:19:39;;;;;;;11.48;6.72;;;;;;;8.88;51.24;95446.88;5047671;28;20494;-71
2022/04/16 04:22:05;;;;;;;11.88;6.95;;;;;;;8.89;51.37;95444.03;5066293;28;20040;-69
2022/04/16 04:24:31;;;;;;;11.55;6.55;;;;;;;8.91;51.64;95443.84;5047651;28;20024;-70
2022/04/16 04:27:00;;;;;;;17.63;7.15;;;;;;;8.89;50.89;95438.66;5065759;28;20426;-70
2022/04/16 04:29:28;;;;;;;13.80;6.35;;;;;;;8.92;51.33;95434.81;5065549;28;20467;-71
2022/04/16 04:31:54;;;;;;;13.00;6.35;;;;;;;9.10;50.98;95425.78;5065701;28;20052;-71
2022/04/16 04:34:19;;;;;;;18.45;7.22;;;;;;;9.21;51.35;95428.13;5047795;28;20514;-73
2022/04/16 04:36:45;;;;;;;12.77;6.88;;;;;;;9.40;50.57;95429.59;5030922;28;20028;-72
2022/04/16 04:39:10;;;;;;;18.05;7.22;;;;;;;9.53;49.75;95428.25;5066082;28;20020;-71
2022/04/16 04:41:36;;;;;;;14.52;6.20;;;;;;;9.67;48.79;95418.69;5047226;28;20029;-71
2022/04/16 04:44:01;;;;;;;14.23;6.60;;;;;;;9.84;48.22;95415.94;5065549;28;20024;-69
2022/04/16 04:46:27;;;;;;;15.90;6.43;;;;;;;9.96;47.79;95417.22;5046993;28;20066;-70
2022/04/16 04:48:52;;;;;;;12.68;6.68;;;;;;;10.04;47.41;95420.91;5065914;28;20036;-70
2022/04/16 04:51:18;;;;;;;12.98;6.45;;;;;;;10.15;46.84;95423.19;5065326;28;20025;-70
2022/04/16 04:53:43;;;;;;;15.10;6.60;;;;;;;10.09;48.34;95422.03;5065540;28;20032;-70
2022/04/16 04:56:09;;;;;;;13.00;6.40;;;;;;;10.17;47.95;95426.53;5065203;28;20035;-71
2022/04/16 04:58:34;;;;;;;17.25;7.03;;;;;;;10.32;47.94;95436.50;5065033;28;20024;-71
2022/04/16 05:00:59;;;;;;;14.30;7.35;;;;;;;10.40;47.99;95428.41;5065553;28;20017;-70
2022/04/16 05:03:25;;;;;;;14.07;7.07;;;;;;;10.57;47.97;95425.69;5064706;28;20024;-69
2022/04/16 05:05:50;;;;;;;15.02;7.22;;;;;;;10.70;48.13;95441.19;5047472;28;20098;-71
2022/04/16 05:08:16;;;;;;;18.73;7.88;;;;;;;10.85;47.24;95435.91;5064557;28;20467;-70
2022/04/16 05:10:41;;;;;;;21.08;7.88;;;;;;;11.05;47.11;95430.03;5065607;28;20082;-72
2022/04/16 05:13:06;;;;;;;18.30;8.23;;;;;;;11.10;47.38;95427.66;5064760;28;20074;-70
2022/04/16 05:15:32;;;;;;;18.25;7.82;;;;;;;11.23;46.20;95427.03;5064998;28;20025;-69
2022/04/16 05:17:57;;;;;;;22.48;8.13;;;;;;;11.40;45.99;95418.84;5065441;28;20021;-70
2022/04/16 05:20:23;;;;;;;18.80;7.18;;;;;;;11.59;45.46;95426.34;5064768;28;20024;-70
2022/04/16 05:22:48;;;;;;;20.00;7.72;;;;;;;11.67;46.45;95420.06;5065335;28;20029;-70
2022/04/16 05:25:14;;;;;;;15.98;8.10;;;;;;;11.81;46.49;95414.88;5064045;28;20457;-70
2022/04/16 05:27:40;;;;;;;17.83;7.68;;;;;;;11.97;46.51;95412.03;5065219;28;20521;-70
2022/04/16 05:30:07;;;;;;;14.95;7.47;;;;;;;12.18;45.63;95406.94;5064245;28;20025;-70
2022/04/16 05:32:36;;;;;;;18.95;8.27;;;;;;;12.43;44.74;95410.13;5065232;28;20032;-70
2022/04/16 05:35:02;;;;;;;15.75;7.53;;;;;;;12.67;45.22;95412.66;5064427;28;20581;-71
2022/04/16 05:37:28;;;;;;;22.30;8.85;;;;;;;12.77;45.23;95415.03;5064675;28;20082;-70
2022/04/16 05:39:53;;;;;;;27.30;9.25;;;;;;;12.97;45.19;95416.06;5065201;28;20032;-71
2022/04/16 05:42:19;;;;;;;17.63;8.38;;;;;;;13.14;43.79;95410.41;5064174;28;20410;-71
2022/04/16 05:44:44;;;;;;;13.35;7.57;;;;;;;13.34;41.46;95409.75;5064971;28;20471;-71
2022/04/16 05:47:09;;;;;;;15.63;7.60;;;;;;;13.47;41.48;95420.63;5064142;28;20518;-70
2022/04/16 05:49:35;;;;;;;12.65;6.78;;;;;;;13.57;40.89;95411.41;5064894;28;20028;-70
2022/04/16 05:52:00;;;;;;;15.75;7.63;;;;;;;13.68;40.79;95416.25;5064474;28;20572;-71
2022/04/16 05:54:26;;;;;;;17.38;7.15;;;;;;;13.89;40.26;95416.38;5046452;28;20032;-70
2022/04/16 05:56:51;;;;;;;17.48;6.57;;;;;;;14.12;39.77;95409.88;5064904;28;20034;-70
2022/04/16 05:59:16;;;;;;;9.82;5.85;;;;;;;14.38;39.04;95411.81;5065952;28;20059;-70
2022/04/16 06:01:43;;;;;;;12.48;6.20;;;;;;;14.51;38.96;95407.53;5034447;28;20035;-70
2022/04/16 06:04:08;;;;;;;8.05;5.65;;;;;;;14.65;38.88;95411.94;5050420;28;20438;-70
2022/04/16 06:06:34;;;;;;;15.55;6.90;;;;;;;14.77;38.74;95408.63;5068443;28;20477;-69
2022/04/16 06:08:59;;;;;;;12.75;6.75;;;;;;;14.99;38.75;95408.50;5068214;28;20028;-68
2022/04/16 06:11:28;;;;;;;15.85;8.10;;;;;;;15.08;38.76;95404.56;5068512;28;20498;-71
2022/04/16 06:13:53;;;;;;;11.20;4.32;;;;;;;15.33;35.70;95398.56;5068375;28;20115;-70
2022/04/16 06:16:19;;;;;;;8.68;3.90;;;;;;;15.39;34.77;95397.72;5067905;28;20027;-69
2022/04/16 06:18:44;;;;;;;6.88;4.07;;;;;;;15.57;34.77;95388.97;5069175;28;20024;-70
2022/04/16 06:21:09;;;;;;;9.93;4.70;;;;;;;15.76;34.86;95389.16;5068010;28;20028;-70
2022/04/16 06:23:35;;;;;;;8.27;4.15;;;;;;;15.88;33.95;95393.94;5068516;28;20513;-71
2022/04/16 06:26:00;;;;;;;7.15;4.28;;;;;;;15.87;34.38;95398.50;5067878;28;20114;-70
2022/04/16 06:28:26;;;;;;;10.23;4.25;;;;;;;16.06;34.41;95385.16;5068337;28;20047;-70
2022/04/16 06:30:51;;;;;;;14.38;4.97;;;;;;;16.05;34.60;95389.75;5068520;28;20036;-71
2022/04/16 06:33:17;;;;;;;9.13;5.00;;;;;;;16.20;33.91;95388.66;5068329;28;20029;-71
2022/04/16 06:35:42;;;;;;;12.68;4.88;;;;;;;16.28;33.76;95393.00;5068069;28;20051;-71
2022/04/16 06:38:08;;;;;;;12.20;4.90;;;;;;;16.07;34.47;95386.84;5067713;28;20340;-70
2022/04/16 06:40:33;;;;;;;12.05;4.63;;;;;;;15.99;34.25;95392.47;5068234;28;20017;-70
2022/04/16 06:42:59;;;;;;;8.90;4.30;;;;;;;15.91;34.45;95385.38;5067689;28;20020;-70
2022/04/16 06:45:24;;;;;;;13.75;5.30;;;;;;;15.72;34.95;95382.50;5049807;28;20677;-71
2022/04/16 06:47:49;;;;;;;12.75;5.43;;;;;;;15.55;34.70;95385.66;5049676;28;20024;-71
2022/04/16 06:50:15;;;;;;;11.30;4.55;;;;;;;15.36;35.60;95390.03;5067871;28;20028;-70
2022/04/16 06:52:40;;;;;;;9.98;5.15;;;;;;;15.27;35.89;95391.25;5067191;28;20510;-70
2022/04/16 06:55:06;;;;;;;16.13;5.35;;;;;;;15.27;35.97;95389.41;5067478;28;20020;-70
2022/04/16 06:57:32;;;;;;;7.95;4.28;;;;;;;15.37;36.15;95391.69;5049745;28;20024;-70
2022/04/16 06:59:57;;;;;;;10.60;4.85;;;;;;;15.40;36.25;95385.88;5067232;28;20025;-71
2022/04/16 07:02:22;;;;;;;9.05;4.53;;;;;;;15.53;36.11;95387.72;5067764;28;20415;-69
2022/04/16 07:04:48;;;;;;;7.80;5.03;;;;;;;15.76;36.06;95383.75;5066836;28;20077;-70
2022/04/16 07:07:13;;;;;;;9.60;5.28;;;;;;;15.78;35.51;95375.44;5067401;28;20028;-70
2022/04/16 07:09:39;;;;;;;9.82;5.18;;;;;;;15.73;36.00;95376.06;5066128;28;20064;-72
2022/04/16 07:12:09;;;;;;;7.97;5.43;;;;;;;15.74;35.79;95374.19;5066894;28;20025;-70
2022/04/16 07:14:35;;;;;;;13.48;5.40;;;;;;;15.69;35.36;95382.91;5049364;28;20045;-70
2022/04/16 07:17:01;;;;;;;13.32;5.45;;;;;;;15.80;35.36;95378.72;5048707;28;20055;-72
2022/04/16 07:19:30;;;;;;;13.48;5.43;;;;;;;15.80;35.40;95376.03;5067540;28;20466;-71
2022/04/16 07:21:55;;;;;;;7.47;4.32;;;;;;;15.88;35.17;95377.69;5066540;28;20432;-71
2022/04/16 07:24:25;;;;;;;11.23;5.45;;;;;;;15.95;35.13;95378.50;5067365;28;20086;-71
2022/04/16 07:26:53;;;;;;;12.35;5.80;;;;;;;16.06;34.70;95377.88;5066208;28;20041;-71
2022/04/16 07:29:21;;;;;;;7.28;4.88;;;;;;;16.21;34.74;95382.19;5067311;28;20025;-72
2022/04/16 07:31:47;;;;;;;7.97;5.28;;;;;;;16.16;34.23;95374.72;5066444;28;20384;-70
2022/04/16 07:34:13;;;;;;;10.32;5.13;;;;;;;16.11;34.80;95371.81;5066323;28;20035;-73
2022/04/16 07:36:38;;;;;;;10.32;5.10;;;;;;;16.22;35.13;95373.03;5048625;28;20016;-71
2022/04/16 07:39:04;;;;;;;7.97;5.20;;;;;;;16.15;34.64;95369.53;5066416;28;20028;-70
2022/04/16 07:41:29;;;;;;;7.75;5.20;;;;;;;16.23;34.68;95368.44;5067129;28;20031;-70
2022/04/16 07:43:55;;;;;;;10.98;5.13;;;;;;;16.33;34.14;95371.53;5065925;28;20033;-69
2022/04/16 07:46:22;;;;;;;10.32;4.70;;;;;;;16.42;34.11;95367.53;5066674;28;20042;-72
2022/04/16 07:48:48;;;;;;;10.43;4.72;;;;;;;16.59;34.19;95360.78;5048543;28;20047;-71
2022/04/16 07:51:13;;;;;;;7.80;4.78;;;;;;;16.67;33.68;95361.34;5066444;28;20495;-70
2022/04/16 07:53:38;;;;;;;12.20;5.70;;;;;;;16.85;33.54;95358.94;5066563;28;20032;-70
2022/04/16 07:56:04;;;;;;;11.65;5.65;;;;;;;17.09;33.12;95346.53;5065831;28;20032;-69
2022/04/16 07:58:29;;;;;;;11.57;4.95;;;;;;;17.24;33.02;95350.78;5067010;28;20028;-70
2022/04/16 08:00:55;;;;;;;7.47;4.55;;;;;;;17.29;33.07;95345.53;5065706;28;20035;-70
2022/04/16 08:03:20;;;;;;;11.35;5.50;;;;;;;17.56;32.34;95348.00;5066632;28;20028;-70
2022/04/16 08:05:46;;;;;;;8.80;4.82;;;;;;;17.81;32.59;95336.28;5065569;28;20414;-70
2022/04/16 08:08:12;;;;;;;14.10;5.45;;;;;;;17.96;31.90;95340.50;5066469;28;20517;-70
2022/04/16 08:10:37;;;;;;;12.65;5.18;;;;;;;18.17;31.95;95339.22;5066161;28;20025;-70
2022/04/16 08:13:05;;;;;;;10.18;4.95;;;;;;;18.24;31.91;95336.44;5065678;28;20035;-71
2022/04/16 08:15:31;;;;;;;10.65;5.53;;;;;;;18.34;30.72;95327.75;5066843;28;20016;-72
2022/04/16 08:17:56;;;;;;;9.48;4.43;;;;;;;18.48;30.11;95320.25;5065460;28;20021;-70
2022/04/16 08:20:22;;;;;;;10.38;4.85;;;;;;;18.61;29.33;95319.25;5066309;28;20078;-71
2022/04/16 08:22:48;;;;;;;9.02;4.72;;;;;;;18.70;29.47;95317.03;5065022;28;20082;-72
2022/04/16 08:27:51;;;;;;;10.05;4.95;;;;;;;19.07;29.45;95306.00;5065796;28;20047;-70
2022/04/16 08:30:17;;;;;;;11.93;4.55;;;;;;;19.14;29.43;95306.75;5047510;28;20028;-70
2022/04/16 08:32:43;;;;;;;8.55;4.65;;;;;;;19.13;29.00;95309.72;5066122;28;20375;-71
2022/04/16 08:35:13;;;;;;;11.70;4.43;;;;;;;19.22;28.94;95310.19;5064985;28;20024;-71
2022/04/16 08:37:38;;;;;;;7.93;4.47;;;;;;;19.33;28.34;95303.94;5066037;28;20497;-70
2022/04/16 08:40:05;;;;;;;10.35;4.95;;;;;;;19.30;28.46;95301.69;5065299;28;20415;-72
2022/04/16 08:42:32;;;;;;;8.60;4.95;;;;;;;19.45;28.85;95290.34;5048093;28;20483;-72
2022/04/16 08:44:57;;;;;;;16.13;5.43;;;;;;;19.50;29.00;95287.75;5065203;28;20032;-74
2022/04/16 08:47:23;;;;;;;7.95;4.75;;;;;;;19.61;28.95;95286.06;5065713;28;20025;-72
2022/04/16 08:49:48;;;;;;;9.85;4.22;;;;;;;19.69;28.85;95284.88;5031085;28;20028;-73
2022/04/16 08:52:14;;;;;;;7.63;3.95;;;;;;;19.74;28.12;95276.84;5046864;28;20637;-73
2022/04/16 08:54:39;;;;;;;12.05;4.60;;;;;;;19.77;27.39;95270.09;5048093;28;20036;-71
2022/04/16 08:57:05;;;;;;;7.35;4.45;;;;;;;19.83;27.96;95274.56;5065058;28;20020;-70
2022/04/16 08:59:31;;;;;;;7.85;4.72;;;;;;;19.92;27.36;95275.03;5065488;28;20420;-70
2022/04/16 09:01:58;;;;;;;7.53;4.03;;;;;;;19.99;27.60;95272.19;5064912;28;20027;-71
2022/04/16 09:04:23;;;;;;;9.88;4.45;;;;;;;20.01;27.19;95270.03;5065602;28;20538;-71
2022/04/16 09:06:59;;;;;;;11.50;4.00;;;;;;;19.97;27.22;95266.97;5046834;28;20024;-71
2022/04/16 09:09:24;;;;;;;9.07;4.22;;;;;;;20.00;26.99;95266.50;5046512;28;20041;-72
2022/04/16 09:11:50;;;;;;;9.40;4.28;;;;;;;20.09;27.44;95266.94;5065617;28;20152;-70
2022/04/16 09:14:15;;;;;;;6.90;4.53;;;;;;;20.19;27.18;95265.50;5046402;28;20465;-70
2022/04/16 09:16:41;;;;;;;9.43;4.13;;;;;;;20.20;26.94;95267.16;5047503;28;20427;-71
2022/04/16 09:19:16;;;;;;;7.72;4.18;;;;;;;20.24;27.19;95268.31;5046607;28;20040;-69
2022/04/16 09:21:43;;;;;;;10.77;4.05;;;;;;;20.09;27.25;95268.84;5065126;28;20028;-71
2022/04/16 09:24:09;;;;;;;7.85;4.28;;;;;;;20.23;27.43;95258.50;5046976;28;20490;-71
2022/04/16 09:26:35;;;;;;;7.40;4.13;;;;;;;20.28;27.68;95269.47;5046492;28;20041;-70
2022/04/16 09:29:07;;;;;;;6.38;3.53;;;;;;;20.37;27.91;95259.03;5047313;28;20029;-72
2022/04/16 09:31:34;;;;;;;9.52;3.65;;;;;;;20.35;27.85;95253.84;5064543;28;20024;-73
2022/04/16 09:34:00;;;;;;;10.68;4.18;;;;;;;20.34;28.12;95254.09;5064446;28;20028;-71
2022/04/16 09:36:26;;;;;;;9.73;3.85;;;;;;;20.40;28.45;95249.53;5046377;28;20028;-72
2022/04/16 09:39:00;;;;;;;8.75;3.83;;;;;;;20.44;28.57;95248.00;5065210;28;20027;-71
2022/04/16 09:41:30;;;;;;;5.82;3.47;;;;;;;20.49;28.49;95243.47;5064895;28;20474;-71
2022/04/16 09:43:56;;;;;;;7.75;3.70;;;;;;;20.49;28.39;95248.09;5046640;28;20024;-71
2022/04/16 09:46:21;;;;;;;6.22;3.72;;;;;;;20.57;28.09;95244.97;5065078;28;20078;-71
2022/04/16 09:48:47;;;;;;;7.70;3.58;;;;;;;20.58;28.28;95246.63;5046312;28;20029;-73
2022/04/16 09:51:12;;;;;;;9.60;3.90;;;;;;;20.59;27.77;95247.44;5046828;28;20025;-73
2022/04/16 09:53:38;;;;;;;6.93;3.88;;;;;;;20.61;27.55;95240.69;5046495;28;20028;-73
2022/04/16 09:56:04;;;;;;;10.38;3.70;;;;;;;20.69;27.28;95235.88;5047125;28;20575;-71
2022/04/16 09:58:37;;;;;;;7.97;4.07;;;;;;;20.65;26.93;95237.47;5064413;28;20035;-71
2022/04/16 10:01:03;;;;;;;9.10;4.00;;;;;;;20.69;27.23;95241.34;5047373;28;20028;-72
2022/04/16 10:03:29;;;;;;;6.60;3.85;;;;;;;20.60;26.56;95228.13;5064583;28;20051;-71
2022/04/16 10:05:58;;;;;;;7.38;3.88;;;;;;;20.65;27.52;95240.19;5064121;28;20568;-70
2022/04/16 10:08:25;;;;;;;8.88;3.53;;;;;;;20.60;27.63;95238.22;5064852;28;20031;-72
2022/04/16 10:10:54;;;;;;;6.97;3.38;;;;;;;20.53;27.26;95219.28;5030036;28;20025;-71
2022/04/16 10:13:20;;;;;;;6.13;3.50;;;;;;;20.56;28.75;95215.22;5047170;28;20103;-72
2022/04/16 10:15:59;;;;;;;7.47;4.10;;;;;;;20.69;30.33;95216.81;5046405;28;20020;-74
2022/04/16 10:18:25;;;;;;;8.07;3.33;;;;;;;20.68;27.86;95223.34;5064022;28;20029;-71
2022/04/16 10:20:52;;;;;;;4.38;3.20;;;;;;;20.71;29.24;95217.41;5064950;28;20109;-71
2022/04/16 10:23:25;;;;;;;6.03;3.92;;;;;;;20.73;28.91;95218.00;5046044;28;20406;-70
2022/04/16 10:25:50;;;;;;;7.03;3.80;;;;;;;20.69;27.50;95216.81;5064353;28;20202;-71
2022/04/16 10:28:25;;;;;;;5.82;3.20;;;;;;;20.68;27.25;95210.56;5063946;28;20498;-72
2022/04/16 10:30:52;;;;;;;7.03;3.70;;;;;;;20.72;28.12;95210.88;5064622;28;20056;-71
2022/04/16 10:33:21;;;;;;;9.73;3.80;;;;;;;20.72;28.28;95210.88;5046265;28;20111;-73
2022/04/16 10:36:05;;;;;;;8.40;4.00;;;;;;;20.76;28.30;95209.31;5064020;28;20025;-72
2022/04/16 10:38:36;;;;;;;10.90;4.03;;;;;;;20.83;28.50;95209.97;5064573;28;20042;-70
2022/04/16 10:41:17;;;;;;;9.23;4.10;;;;;;;20.84;28.58;95208.91;5064305;28;20032;-71
2022/04/16 10:43:59;;;;;;;6.60;3.40;;;;;;;20.91;28.78;95207.91;5046576;28;20102;-71
2022/04/16 10:46:46;;;;;;;4.82;3.50;;;;;;;20.91;27.73;95199.75;5050191;28;20032;-71
2022/04/16 10:49:12;;;;;;;6.65;3.35;;;;;;;20.93;27.39;95200.31;5067394;28;20055;-70
2022/04/16 10:51:37;;;;;;;5.03;3.28;;;;;;;20.98;27.51;95201.25;5067803;28;20101;-70
2022/04/16 10:54:10;;;;;;;7.53;3.22;;;;;;;20.99;27.67;95196.59;5067454;28;20040;-71
2022/04/16 10:56:39;;;;;;;;;;;;;;;21.01;28.57;95199.09;5050386;28;20021;-72
2022/04/16 10:59:05;;;;;;;5.90;3.60;;;;;;;20.94;28.37;95194.63;5050210;28;19916;-72
2022/04/16 11:01:30;;;;;;;5.10;3.67;;;;;;;20.94;29.51;95183.72;5067621;28;20024;-71
2022/04/16 11:03:55;;;;;;;8.27;4.10;;;;;;;21.01;28.57;95190.94;5067700;28;20366;-70
2022/04/16 11:06:24;;;;;;;4.90;3.15;;;;;;;21.06;27.82;95193.72;5066876;28;20028;-70
2022/04/16 11:08:49;;;;;;;17.65;6.05;;;;;;;21.13;27.65;95180.75;5033208;28;20101;-74
2022/04/16 11:11:15;;;;;;;6.85;3.90;;;;;;;20.98;27.01;95189.50;5049456;28;20021;-73
2022/04/16 11:13:42;;;;;;;4.75;3.28;;;;;;;20.94;27.19;95182.91;5049571;28;20444;-72
2022/04/16 11:16:08;;;;;;;11.43;4.00;;;;;;;21.02;27.87;95185.22;5067035;28;20021;-73
2022/04/16 11:18:38;;;;;;;7.40;4.47;;;;;;;21.09;27.68;95188.59;5067800;28;20036;-70
2022/04/16 11:21:06;;;;;;;7.38;3.47;;;;;;;21.19;27.88;95178.91;5067182;28;20479;-70
2022/04/16 11:23:39;;;;;;;6.43;3.83;;;;;;;21.23;26.67;95175.41;5048863;28;20024;-72
2022/04/16 11:34:27;;;;;;;5.28;3.42;;;;;;;21.34;27.04;95176.41;5052649;28;20040;-71
2022/04/16 11:36:53;;;;;;;7.63;3.53;;;;;;;21.34;27.39;95170.13;5066250;28;20017;-72
2022/04/16 11:39:25;;;;;;;11.35;4.20;;;;;;;21.33;26.57;95166.56;5067217;28;20035;-73
2022/04/16 11:41:58;;;;;;;5.20;3.40;;;;;;;21.30;27.03;95167.06;5066506;28;20036;-72
2022/04/16 11:44:38;;;;;;;9.90;3.53;;;;;;;21.32;26.81;95164.91;5067223;28;20479;-71
2022/04/16 11:47:11;;;;;;;4.97;3.70;;;;;;;21.37;26.86;95153.25;5066769;28;20530;-75
2022/04/16 11:49:36;;;;;;;7.97;3.50;;;;;;;21.41;27.51;95148.94;5066284;28;20032;-71